Tiempo atmosférico en la estación meteorológica de Punta Galea, Bizkaia (90 m.)



Fecha
DESCASC
Temp. máxima en grados centígrados (hora)
DESCASC
Temp. mínima en grados centígrados (hora)
DESCASC
Temp. media en grados centígrados
DESCASC
Racha de viento máxima en m/sg (hora)
DESCASC
Velocidad máxima media en intervalos de 10 minutos(hora)
DESCASC
Precipitaciones diarias en mm
DESCASC
Precipitaciones de 00:00 a 06:00 en mm
DESCASC
Precipitaciones de 06:00 a 12:00 en mm
DESCASC
Precipitaciones de 12:00 a 18:00 en mm
DESCASC
Precipitaciones de 18:00 a 24:00 en mm
DESCASC
18-08-2019 22.8 (11:20) 16.3 (20:20) 19.5 10 (16:10) 5 (15:50) 2 0 0 1.4 0.6
17-08-2019 25.2 (11:50) 14.9 (07:40) 20.1 5.83 (09:10) 3.33 (09:10) 0 0 0 0 0
16-08-2019 23.8 (18:00) 13 (07:30) 18.4 6.11 (09:30) 3.61 (13:50) 0 0 0 0 0
15-08-2019 22.8 (15:20) 16.7 (00:00) 19.8 9.17 (05:00) 5.28 (05:00) 0.8 0.8 0 0 0
14-08-2019 23.3 (14:40) 13.4 (00:00) 18.3 6.67 (21:30) 3.61 (22:10) 0 0 0 0 0
13-08-2019 21.9 (15:00) 13.6 (00:00) 17.8 6.67 (18:20) 4.17 (18:20) 0 0 0 0 0
12-08-2019 19.8 (19:10) 16.1 (00:00) 17.9 14.44 (13:20) 7.5 (13:20) 0 0 0 0 0
11-08-2019 21 (13:50) 15.9 (00:00) 18.4 6.67 (05:20) 4.17 (05:20) 11.8 5.7 6 0 0.1
10-08-2019 23.5 (15:00) 18.6 (00:00) 21.1 5.28 (14:40) 2.78 (17:30) 4.2 0 4.2 0 0
09-08-2019 -- (--) -- (--) -- -- (--) -- (--) -- 0 -- 0 0
08-08-2019 33 (14:50) 19 (00:00) 26 10 (14:50) 3.33 (14:20) 0 0 0 0 0
07-08-2019 27 (17:50) 18.8 (00:00) 22.9 6.94 (14:00) 4.44 (14:00) 0.7 0 0 0 0.7
06-08-2019 24.4 (16:20) 16.3 (00:00) 20.3 5.83 (19:50) 3.89 (14:50) 0 0 0 0 0
05-08-2019 23.8 (16:30) 16.4 (00:00) 20.1 7.22 (16:10) 4.72 (14:40) 0 0 0 0 0
04-08-2019 22.1 (15:40) 19.2 (00:00) 20.7 4.72 (01:50) 2.5 (01:20) 0 0 0 0 0
03-08-2019 23.8 (17:40) 15.6 (00:00) 19.7 6.94 (15:00) 4.44 (14:50) 0 0 0 0 0
02-08-2019 23.1 (16:50) 17.6 (00:00) 20.4 7.78 (16:10) 5 (16:00) 0 0 0 0 0
01-08-2019 20.6 (13:20) 17.1 (00:00) 18.9 6.39 (17:20) 4.17 (13:30) 0.2 0.2 0 0 0
31-07-2019 21.6 (17:10) 13 (00:00) 17.3 8.61 (15:00) 5.28 (15:00) 0 0 0 0 0
30-07-2019 20.8 (17:00) 16.6 (00:00) 18.7 10.28 (13:10) 5.83 (12:50) 0.6 0.6 0 0 0
29-07-2019 22.9 (12:50) 15.5 (00:00) 19.2 9.44 (21:30) 5 (11:10) 5 0 0 0 5
28-07-2019 22.3 (18:20) 14.7 (00:00) 18.5 10.83 (03:30) 5 (16:30) 1.8 1.8 0 0 0
27-07-2019 19 (16:30) 15.2 (00:00) 17.1 10.28 (17:30) 5.83 (18:40) 7.1 4.7 2.2 0 0.2
26-07-2019 21.3 (00:20) 17.1 (00:00) 19.2 11.94 (11:20) 5.56 (18:40) 14.3 4.9 7.1 1.7 0.6
25-07-2019 25 (13:20) 20.8 (00:00) 22.9 9.72 (01:10) 5.28 (01:20) 11.9 0 0 0.5 11.4
24-07-2019 26.7 (21:30) 20 (00:00) 23.4 8.06 (22:50) 4.72 (23:59) 0 0 0 0 0
23-07-2019 36.5 (14:10) 19.7 (00:00) 28.1 12.5 (20:50) 7.22 (21:00) 0.7 0 0 0 0.7
22-07-2019 26.4 (15:10) 20.1 (00:00) 23.3 9.17 (23:10) 5 (23:10) 0 0 0 0 0
21-07-2019 22.8 (18:00) 19.5 (00:00) 21.1 6.39 (15:20) 4.17 (19:00) 0.8 0 0.8 0 0

Gráficas

Temp. máximas Temp. mínimas Temp. medias Precipitaciones Rachas de viento máximas Velocidades máximas media en intervalos de 10 minutos

Datos horarios

Fecha y hora oficial Temperatura (ºC) Velocidad del viento (km/h) Dirección del viento Racha (km/h) Dirección de racha Precipitación (mm) Presión (hPa) Tendencia (hPa) Humedad (%)
2019-08-19 23:00:00 16.8 0 Calma 19 Este 0.9 1012.2 0.7 94
2019-08-19 22:00:00 17.5 6 Oeste 16 Nordeste 0.2 1012 0.6 92
2019-08-19 21:00:00 17.9 3 Noroeste 10 Oeste 0 1011.7 0.3 89
2019-08-19 20:00:00 17.9 4 Oeste 12 Noroeste 0 1011.5 0.4 89
2019-08-19 19:00:00 17.9 7 Norte 15 Nordeste 0 1011.4 -0.7 91
2019-08-19 18:00:00 17.9 3 Sudoeste 7 Sudoeste 0 1011.4 -0.7 95
2019-08-19 17:00:00 17.3 5 Sudoeste 10 Sudoeste 0.3 1011.1 -0.5 95
2019-08-19 16:00:00 17.3 5 Sur 11 Sudoeste 1.6 1012.1 0.6 93
2019-08-19 15:00:00 18 0 Calma 10 Noroeste 0.4 1012.1 0.5 89
2019-08-19 14:00:00 18.8 5 Noroeste 12 Noroeste 0 1011.6 0.3 82
2019-08-19 13:00:00 19 5 Noroeste 13 Noroeste 0 1011.5 0.5 80
2019-08-19 12:00:00 17.7 8 Noroeste 14 Oeste 0 1011.6 0.7 86
2019-08-19 11:00:00 17.3 9 Oeste 17 Noroeste 0 1011.3 0.7 93
2019-08-19 10:00:00 16.5 2 Sur 11 Sudeste 0 1011 0.7 96
2019-08-19 09:00:00 15.6 8 Sudeste 16 Este 0 1010.9 0.6 96
2019-08-19 08:00:00 15.6 6 Sudeste 18 Sudoeste 0 1010.6 0.3 96
2019-08-19 07:00:00 15.5 9 Oeste 23 Noroeste 0 1010.3 0 96
2019-08-19 06:00:00 16 6 Oeste 20 Noroeste 2 1010.3 -0.2 95
2019-08-19 05:00:00 16.1 6 Sur 11 Sur 0.1 1010.3 -0.2 96
2019-08-19 04:00:00 16.4 7 Sudeste 10 Sudeste 0 1010.3 -0.4 95
2019-08-19 03:00:00 17.4 7 Noroeste 16 Noroeste 0 1010.5 0.2 89
2019-08-19 02:00:00 17.5 8 Oeste 15 Oeste 0 1010.5 0.4 88
2019-08-19 01:00:00 17.5 8 Oeste 15 Noroeste 0 1010.7 1.2 88
2019-08-19 00:00:00 17.4 6 Oeste 15 Oeste 0 1010.3 1.6 92
2019-08-18 23:00:00 16.9 5 Oeste 17 Oeste 0 1010.1 2 94
2019-08-18 22:00:00 17.1 4 Oeste 15 Noroeste 0.2 1009.5 1.3 94
2019-08-18 21:00:00 17 10 Noroeste 25 Noroeste 0.3 1008.7 1.3 93
2019-08-18 20:00:00 17.1 15 Noroeste 29 Noroeste 0 1008.1 1.3 95
2019-08-18 19:00:00 17.2 16 Noroeste 31 Norte 0.1 1008.2 2 97
2019-08-18 18:00:00 17.9 14 Noroeste 33 Noroeste 1.1 1007.4 1.8 97
2019-08-18 17:00:00 18.2 14 Noroeste 36 Noroeste 0.1 1006.8 1.6 97
2019-08-18 16:00:00 18.5 15 Noroeste 32 Noroeste 0.2 1006.2 0.9 97
2019-08-18 15:00:00 20.2 17 Noroeste 31 Oeste 0 1005.6 0.7 94
2019-08-18 14:00:00 21.4 10 Noroeste 23 Noroeste 0 1005.2 1.4 93
2019-08-18 13:00:00 20.7 12 Noroeste 30 Noroeste 0 1005.3 1.9 93
2019-08-18 12:00:00 21.2 15 Noroeste 28 Noroeste 0 1004.9 2.5 94
2019-08-18 11:00:00 22.2 9 Noroeste 20 Noroeste 0 1003.8 2 90
2019-08-18 10:00:00 21.2 8 Noroeste 13 Noroeste 0 1003.4 2.6 90
2019-08-18 09:00:00 20.5 5 Sudeste 9 Sudeste 0 1002.4 2.4 91
2019-08-18 08:00:00 19.9 3 Oeste 14 Noroeste 0 1001.8 2.3 95
2019-08-18 07:00:00 18.6 4 Oeste 10 Sur 0 1000.8 0.8 94
2019-08-18 06:00:00 17.8 6 Sur 15 Sur 0 1000 -1.1 93
2019-08-18 05:00:00 18 10 Sur 22 Sur 0 999.5 -1.9 92
2019-08-18 04:00:00 18 10 Sur 20 Sudeste 0 1000 -2.2 93
2019-08-18 03:00:00 18 7 Sur 17 Sur 0 1001.1 -1.4 93
2019-08-18 02:00:00 18.6 7 Sur 12 Sur 0 1001.4 -1.8 92
2019-08-18 01:00:00 19 5 Sur 9 Sur 0 1002.2 -1.1 92
2019-08-18 00:00:00 19.3 5 Sudeste 8 Sudeste 0 1002.5 -0.9 91
2019-08-17 23:00:00 20.5 2 Sudeste 4 Sudeste 0 1003.2 -0.4 88
2019-08-17 22:00:00 21.2 0 Calma 5 Noroeste 0 1003.3 -0.3 85
2019-08-17 21:00:00 22.7 2 Norte 11 Norte 0 1003.4 -0.4 79
2019-08-17 20:00:00 23.7 6 Norte 12 Norte 0 1003.6 -0.9 73
2019-08-17 19:00:00 24.4 5 Norte 11 Norte 0 1003.6 -1.2 76
2019-08-17 18:00:00 24.8 4 Norte 9 Norte 0 1003.8 -1.6 71
2019-08-17 17:00:00 23.8 5 Norte 12 Norte 0 1004.5 -1.2 75
2019-08-17 16:00:00 23.9 6 Norte 12 Norte 0 1004.8 -1.2 76
2019-08-17 15:00:00 23.4 6 Norte 12 Norte 0 1005.4 -0.5 75
2019-08-17 14:00:00 23.4 7 Norte 14 Norte 0 1005.7 -0.5 74
2019-08-17 13:00:00 23 9 Norte 13 Norte 0 1006 -0.1 73
2019-08-17 12:00:00 24 6 Nordeste 13 Sur 0 1005.9 -0.2 64
2019-08-17 11:00:00 22.7 8 Sur 18 Sur 0 1006.2 0.3 64
2019-08-17 10:00:00 19.9 10 Sudeste 21 Sur 0 1006.1 0.4 75
2019-08-17 09:00:00 17.7 10 Sur 16 Sur 0 1006.1 0.3 85
2019-08-17 08:00:00 15.8 9 Sur 15 Sur 0 1005.9 -0.3 91
2019-08-17 07:00:00 15.2 10 Sur 15 Sur 0 1005.7 -1.3 93
2019-08-17 06:00:00 15.3 9 Sur 15 Sur 0 1005.8 -1.7 93
2019-08-17 05:00:00 15.8 8 Sur 12 Sur 0 1006.2 -1.5 93
2019-08-17 04:00:00 16.4 8 Sur 12 Sur 0 1007 -1 93
2019-08-17 03:00:00 16.5 8 Sur 13 Sur 0 1007.5 -0.6 93
2019-08-17 02:00:00 16.6 6 Sur 10 Sur 0 1007.7 -0.5 94
2019-08-17 01:00:00 17.7 6 Sudeste 8 Sudeste 0 1008 -0.1 93
2019-08-17 00:00:00 18.6 4 Sudeste 13 Noroeste 0 1008.1 1 90
2019-08-16 23:00:00 19.9 0 Calma 13 Noroeste 0 1008.2 1.5 88
2019-08-16 22:00:00 20.2 5 Noroeste 11 Noroeste 0 1008.1 1.1 85
2019-08-16 21:00:00 20.7 3 Oeste 8 Noroeste 0 1007.1 0.3 82
2019-08-16 20:00:00 21.6 0 Calma 9 Norte 0 1006.7 -0.3 76
2019-08-16 19:00:00 22.7 6 Norte 11 Norte 0 1007 -0.2 72
2019-08-16 18:00:00 23.5 7 Norte 11 Norte 0 1006.8 -0.8 67
2019-08-16 17:00:00 23.2 5 Norte 12 Norte 0 1007 -1.1 66
2019-08-16 16:00:00 23.1 9 Nordeste 13 Nordeste 0 1007.2 -0.8 67
2019-08-16 15:00:00 23.2 8 Norte 15 Norte 0 1007.6 -0.9 68
2019-08-16 14:00:00 22.4 12 Nordeste 20 Nordeste 0 1008.1 -0.1 76
2019-08-16 13:00:00 21.7 8 Norte 12 Nordeste 0 1008 -0.7 73
2019-08-16 12:00:00 21.6 7 Norte 17 Sur 0 1008.5 -1.1 71
2019-08-16 11:00:00 20.6 11 Sudeste 21 Sudeste 0 1008.2 -1.3 72
2019-08-16 10:00:00 17.9 12 Sudeste 22 Sur 0 1008.7 -0.8 83
2019-08-16 09:00:00 15.1 12 Sudeste 18 Sudeste 0 1009.6 -0.2 94
2019-08-16 08:00:00 13.4 7 Sur 14 Sur 0 1009.5 -0.7 96
2019-08-16 07:00:00 13.3 7 Sur 16 Sur 0 1009.5 -1.1 96
2019-08-16 06:00:00 13.4 9 Sur 17 Sur 0 1009.8 -1.4 96
2019-08-16 05:00:00 14 8 Sur 12 Sur 0 1010.2 -1.9 96
2019-08-16 04:00:00 14.3 6 Sur 12 Sur 0 1010.6 -1.6 95
2019-08-16 03:00:00 14.5 7 Sur 13 Sur 0 1011.2 -1.9 95
2019-08-16 02:00:00 15.2 7 Sur 9 Sur 0 1012.1 -1.6 92
2019-08-16 01:00:00 15.8 6 Sudeste 9 Sur 0 1012.2 -1.1 92
2019-08-16 00:00:00 16.7 5 Sur 8 Sudeste 0 1013.1 0.2 89
2019-08-15 23:00:00 17.5 3 Este 6 Este 0 1013.7 0.8 86
2019-08-15 22:00:00 18.3 4 Nordeste 10 Nordeste 0 1013.3 -0.2 83
2019-08-15 21:00:00 19.7 4 Nordeste 12 Norte 0 1012.9 -0.7 76
2019-08-15 20:00:00 20.9 3 Nordeste 10 Norte 0 1012.9 -0.8 72
2019-08-15 19:00:00 21.2 6 Norte 14 Norte 0 1013.5 -0.3 70
2019-08-15 18:00:00 21.8 8 Norte 18 Nordeste 0 1013.6 -0.4 72
2019-08-15 17:00:00 22.1 9 Nordeste 17 Nordeste 0 1013.7 -0.3 70
2019-08-15 16:00:00 22.5 7 Norte 15 Norte 0 1013.8 -0.1 69
2019-08-15 15:00:00 21.9 7 Norte 14 Norte 0 1014 0.2 70
2019-08-15 14:00:00 21.4 6 Norte 13 Noroeste 0 1014 0 81
2019-08-15 13:00:00 20.5 6 Noroeste 13 Noroeste 0 1013.9 0.2 83
2019-08-15 12:00:00 19.7 9 Noroeste 16 Noroeste 0 1013.8 0.2 86
2019-08-15 11:00:00 19.3 9 Noroeste 18 Noroeste 0 1014 0.9 91
2019-08-15 10:00:00 18.6 10 Noroeste 18 Noroeste 0 1013.7 1.2 92
2019-08-15 09:00:00 18.1 6 Oeste 20 Oeste 0 1013.6 1.4 93
2019-08-15 08:00:00 17.9 13 Noroeste 25 Noroeste 0 1013.1 1.3 93
2019-08-15 07:00:00 18.1 15 Noroeste 29 Noroeste 0 1012.5 1.1 92
2019-08-15 06:00:00 18 15 Noroeste 30 Noroeste 0.1 1012.2 0.8 93
2019-08-15 05:00:00 17.8 19 Noroeste 33 Noroeste 0.1 1011.8 0 95
2019-08-15 04:00:00 19.1 14 Noroeste 24 Noroeste 0.4 1011.4 -0.3 96
2019-08-15 03:00:00 19.2 6 Oeste 13 Noroeste 0 1011.4 -0.2 96
2019-08-15 02:00:00 19.4 5 Oeste 12 Oeste 0.1 1011.8 0 96
2019-08-15 01:00:00 19.6 4 Noroeste 9 Oeste 0.1 1011.7 0.5 95
2019-08-15 00:00:00 19.6 3 Noroeste 12 Oeste 0 1011.6 0.9 96
2019-08-14 23:00:00 19.6 7 Noroeste 24 Noroeste 0 1011.8 1.5 96
2019-08-14 22:00:00 20.6 12 Noroeste 24 Noroeste 0 1011.2 0.8 92
2019-08-14 21:00:00 20.6 10 Noroeste 23 Noroeste 0 1010.7 0 89
2019-08-14 20:00:00 21 7 Noroeste 14 Norte 0 1010.3 -0.5 88
2019-08-14 19:00:00 21.3 6 Norte 16 Norte 0 1010.4 -0.4 82
2019-08-14 18:00:00 21.1 9 Noroeste 20 Noroeste 0 1010.7 0.1 82
2019-08-14 17:00:00 21.5 10 Noroeste 22 Noroeste 0 1010.8 -0.2 78
2019-08-14 16:00:00 21.8 10 Noroeste 18 Noroeste 0 1010.8 0 79
2019-08-14 15:00:00 22.6 8 Norte 16 Noroeste 0 1010.6 0.1 73
2019-08-14 14:00:00 22.3 7 Norte 15 Norte 0 1011 0.5 72
2019-08-14 13:00:00 21.4 8 Norte 12 Norte 0 1010.8 0.6 69
2019-08-14 12:00:00 22.1 5 Norte 18 Norte 0 1010.5 0 63
2019-08-14 11:00:00 21.2 6 Sudeste 16 Sudeste 0 1010.5 0.5 66
2019-08-14 10:00:00 18.8 10 Sur 18 Sudeste 0 1010.2 0.3 76
2019-08-14 09:00:00 16.5 10 Sur 18 Sudeste 0 1010.5 0.6 84
2019-08-14 08:00:00 14.2 9 Sur 18 Sur 0 1010 0 92
2019-08-14 07:00:00 13.7 9 Sur 18 Sur 0 1009.9 -0.5 93
2019-08-14 06:00:00 14.1 9 Sur 15 Sur 0 1009.9 -1.2 93
2019-08-14 05:00:00 14.3 9 Sur 16 Sur 0 1010 -1.9 93
2019-08-14 04:00:00 14.2 9 Sur 16 Sudeste 0 1010.4 -1.9 93
2019-08-14 03:00:00 14.3 9 Sur 15 Sur 0 1011.1 -1.5 93
2019-08-14 02:00:00 14.6 8 Sur 12 Sur 0 1011.9 -0.9 92
2019-08-14 01:00:00 15.3 6 Sur 10 Sur 0 1012.3 -0.3 89
2019-08-14 00:00:00 16 5 Sur 9 Sur 0 1012.6 0.2 86
2019-08-13 23:00:00 16.5 0 Calma 11 Este 0 1012.8 0.8 82
2019-08-13 22:00:00 17.2 4 Sudeste 12 Este 0 1012.6 0.4 79
2019-08-13 21:00:00 18.6 7 Este 18 Nordeste 0 1012.4 -0.3 71
2019-08-13 20:00:00 19.7 11 Nordeste 21 Nordeste 0 1012 -1.1 67
2019-08-13 19:00:00 20.4 14 Nordeste 24 Nordeste 0 1012.2 -1 66
2019-08-13 18:00:00 20.7 13 Nordeste 23 Nordeste 0 1012.7 -0.8 64
2019-08-13 17:00:00 21 13 Nordeste 23 Nordeste 0 1013.1 -0.3 63
2019-08-13 16:00:00 20.8 12 Nordeste 20 Nordeste 0 1013.2 -0.9 58
2019-08-13 15:00:00 21.4 10 Nordeste 17 Nordeste 0 1013.5 -0.8 64
2019-08-13 14:00:00 21.5 8 Norte 14 Norte 0 1013.4 -1.1 69
2019-08-13 13:00:00 20.5 7 Norte 13 Noroeste 0 1014.1 -0.1 69
2019-08-13 12:00:00 20.3 6 Norte 12 Norte 0 1014.3 0.2 75
2019-08-13 11:00:00 19.6 5 Norte 11 Noroeste 0 1014.5 0.5 75
2019-08-13 10:00:00 18 4 Sudeste 11 Sur 0 1014.2 0.8 85
2019-08-13 09:00:00 15.8 9 Sudeste 13 Sudeste 0 1014.1 0.6 92
2019-08-13 08:00:00 14.1 8 Sudeste 12 Sudeste 0 1014 0.3 95
2019-08-13 07:00:00 13.6 8 Sur 11 Sur 0 1013.4 -0.6 95
2019-08-13 06:00:00 14 7 Sur 11 Sur 0 1013.5 -0.8 94
2019-08-13 05:00:00 14.5 7 Sur 11 Sudeste 0 1013.7 -1.5 93
2019-08-13 04:00:00 14.9 6 Sur 10 Sudeste 0 1014 -1.5 92
2019-08-13 03:00:00 15.5 5 Sur 10 Sudeste 0 1014.3 -1.3 92
2019-08-13 02:00:00 16.1 5 Sudeste 11 Sudeste 0 1015.2 -0.3 88
2019-08-13 01:00:00 16.6 4 Sudeste 8 Noroeste 0 1015.5 0.4 83
2019-08-13 00:00:00 18 4 Noroeste 12 Noroeste 0 1015.6 1.2 73
2019-08-12 23:00:00 17.9 4 Norte 15 Noroeste 0 1015.5 1.1 72
2019-08-12 22:00:00 18.1 7 Noroeste 15 Norte 0 1015.1 1.1 73
2019-08-12 21:00:00 18.3 7 Noroeste 21 Noroeste 0 1014.4 0.6 76
2019-08-12 20:00:00 19.1 11 Noroeste 24 Noroeste 0 1014.4 0.3 69
2019-08-12 19:00:00 19.2 11 Noroeste 23 Norte 0 1014 -0.5 74
2019-08-12 18:00:00 18.6 13 Noroeste 27 Noroeste 0 1013.8 -0.6 83
2019-08-12 17:00:00 18.4 15 Noroeste 27 Noroeste 0 1014.1 0 82
2019-08-12 16:00:00 17.6 13 Noroeste 40 Noroeste 0 1014.5 0.6 85
2019-08-12 15:00:00 17.8 19 Noroeste 35 Noroeste 0 1014.4 0.8 82
2019-08-12 14:00:00 19.2 19 Noroeste 52 Noroeste 0 1014.1 0.9 78
2019-08-12 13:00:00 17.5 24 Noroeste 42 Noroeste 0 1013.9 1.1 86
2019-08-12 12:00:00 18.8 18 Noroeste 29 Noroeste 0 1013.6 1.1 71
2019-08-12 11:00:00 17.3 9 Noroeste 37 Noroeste 0 1013.2 1.5 85
2019-08-12 10:00:00 17.6 13 Noroeste 37 Noroeste 0 1012.8 1.6 82
2019-08-12 09:00:00 16.8 13 Noroeste 24 Oeste 0 1012.5 1.4 86
2019-08-12 08:00:00 16.2 9 Oeste 28 Noroeste 0 1011.7 0.9 89
2019-08-12 07:00:00 16.5 11 Oeste 28 Noroeste 0 1011.2 0.2 84
2019-08-12 06:00:00 16.5 18 Noroeste 45 Noroeste 0 1011.1 -0.1 88
2019-08-12 05:00:00 17 10 Oeste 22 Oeste 0 1010.8 -0.8 79
2019-08-12 04:00:00 17.2 9 Oeste 22 Oeste 0 1011 -0.8 77
2019-08-12 03:00:00 17.3 9 Oeste 21 Oeste 0 1011.2 -0.8 80
2019-08-12 02:00:00 17.1 7 Noroeste 21 Noroeste 0 1011.6 0.2 80
2019-08-12 01:00:00 17.1 7 Noroeste 18 Oeste 0 1011.8 0.6 82
2019-08-12 00:00:00 17.3 9 Noroeste 23 Noroeste 0 1012 1.3 84
2019-08-11 23:00:00 17.3 10 Noroeste 19 Noroeste 0 1011.4 1.4 89
2019-08-11 22:00:00 17.5 9 Noroeste 22 Noroeste 0 1011.2 1.2 89
2019-08-11 21:00:00 17.8 11 Noroeste 19 Noroeste 0 1010.7 1 86
2019-08-11 20:00:00 17.8 9 Noroeste 22 Noroeste 0 1010 0.4 89
2019-08-11 19:00:00 17.5 11 Noroeste 22 Noroeste 0.1 1010 0.4 92
2019-08-11 18:00:00 18.9 8 Noroeste 22 Noroeste 0 1009.7 0.3 84
2019-08-11 17:00:00 19.4 10 Noroeste 21 Noroeste 0 1009.6 0.5 91
2019-08-11 16:00:00 17.6 14 Noroeste 22 Noroeste 0 1009.6 -0.1 94
2019-08-11 15:00:00 20.2 9 Norte 17 Norte 0 1009.4 0.1 84
2019-08-11 14:00:00 20.3 9 Norte 15 Norte 0 1009.1 -0.2 82
2019-08-11 13:00:00 19.3 4 Norte 8 Nordeste 0 1009.7 0.7 87
2019-08-11 12:00:00 18.4 3 Norte 9 Noroeste 0 1009.3 0.9 88
2019-08-11 11:00:00 17.6 4 Noroeste 7 Noroeste 0 1009.3 0.7 92
2019-08-11 10:00:00 16.6 2 Oeste 11 Sudeste 0 1009 0.1 96
2019-08-11 09:00:00 16.4 6 Sudeste 19 Nordeste 0.3 1008.4 0 96
2019-08-11 08:00:00 16.3 9 Nordeste 19 Norte 1.3 1008.6 0.5 96
2019-08-11 07:00:00 16.4 8 Oeste 19 Sudoeste 4.4 1008.9 0.4 96
2019-08-11 06:00:00 16.9 9 Noroeste 24 Noroeste 2.6 1008.4 -0.7 95
2019-08-11 05:00:00 17.6 11 Noroeste 20 Noroeste 2.7 1008.1 -1.7 95
2019-08-11 04:00:00 18.5 3 Noroeste 7 Nordeste 0.4 1008.5 -1.8 93
2019-08-11 03:00:00 18.9 0 Calma 5 Sudeste 0 1009.1 -1.7 90
2019-08-11 02:00:00 18.8 0 Calma 4 Sur 0 1009.8 -1.1 89
2019-08-11 01:00:00 19.1 0 Calma 4 Sudeste 0 1010.3 -0.8 89
2019-08-11 00:00:00 19.5 0 Calma 6 Nordeste 0 1010.8 0 86
2019-08-10 23:00:00 19.9 3 Nordeste 11 Nordeste 0 1010.9 0.2 84
2019-08-10 22:00:00 20.1 7 Nordeste 12 Nordeste 0 1011.1 0.2 82
2019-08-10 21:00:00 20.1 7 Nordeste 14 Nordeste 0 1010.8 0.1 78
2019-08-10 20:00:00 20.4 5 Norte 17 Norte 0 1010.7 -0.3 78
2019-08-10 19:00:00 21.1 7 Norte 15 Nordeste 0 1010.9 -0.5 76
2019-08-10 18:00:00 21.8 8 Norte 18 Norte 0 1010.7 -0.8 76
2019-08-10 17:00:00 22.1 6 Norte 15 Norte 0 1011 -0.6 73
2019-08-10 16:00:00 21.7 6 Norte 18 Norte 0 1011.4 -0.3 70
2019-08-10 15:00:00 23 8 Norte 19 Norte 0 1011.5 -0.4 68
2019-08-10 14:00:00 22.5 8 Norte 17 Norte 0 1011.6 0.1 70
2019-08-10 13:00:00 22.3 6 Norte 17 Norte 0 1011.7 0.4 76
2019-08-10 12:00:00 21.5 6 Noroeste 14 Noroeste 0 1011.9 1.3 85
2019-08-10 11:00:00 19.7 0 Calma 9 Sudeste 0.1 1011.5 1.7 96
2019-08-10 10:00:00 18.8 2 Sur 10 Este 0.5 1011.3 1.8 96
2019-08-10 09:00:00 19.4 3 Sudeste 5 Sudeste 3.6 1010.6 1.7 94
2019-08-10 08:00:00 19.5 0 Calma 8 Este 0 1009.8 1.1 92
2019-08-10 07:00:00 19.7 3 Nordeste 14 Norte 0 1009.5 1.3 92
2019-08-10 06:00:00 19.8 6 Norte 17 Norte 0 1008.9 1.1 89
2019-08-10 05:00:00 20 9 Noroeste 15 Noroeste 0 1008.7 1.1 92
2019-08-10 04:00:00 19.9 2 Nordeste 6 Norte 0 1008.2 1.1 93
2019-08-10 03:00:00 20 4 Sur 8 Sudeste 0 1007.8 0.6 92
2019-08-10 02:00:00 19.8 5 Sur 6 Sudeste 0 1007.6 1 92
2019-08-10 01:00:00 19.8 4 Sur 6 Sur 0 1007.1 1.3 91
2019-08-10 00:00:00 19.9 5 Sur 8 Sudeste 0 1007.2 2 91
2019-08-09 23:00:00 20.5 5 Sur 10 Sudeste 0 1006.6 2.2 91
2019-08-09 22:00:00 20.7 3 Sudeste 9 Este 0 1005.8 2.6 89
2019-08-09 21:00:00 21.5 8 Este 16 Este 0 1005.2 3.6 86
2019-08-09 20:00:00 21.5 8 Nordeste 32 Nordeste 0 1004.4 3.4 91
2019-08-09 19:00:00 21.3 17 Nordeste 36 Norte 0 1003.2 1.9 91
2019-08-09 18:00:00 22.5 10 Norte 26 Nordeste 0 1001.6 0.5 87
2019-08-09 17:00:00 24.5 8 Norte 26 Norte 0 1001 0 75
2019-08-09 16:00:00 27.1 5 Sudoeste 27 Oeste 0 1001.3 -0.6 52
2019-08-09 15:00:00 28.8 6 Sudoeste 26 Sur 0 1001.1 -0.6 52
2019-08-09 14:00:00 29 10 Sur 22 Sur 0 1001 -- 64
2019-08-09 13:00:00 23.4 7 Sudeste 19 Nordeste 0 1001.9 1.2 87
2019-08-09 12:00:00 23 10 Nordeste -- -- -- 1001.7 1.4 87
2019-08-09 11:00:00 -- -- -- -- -- -- -- -- --
2019-08-09 10:00:00 22.4 6 Norte 17 Norte 0 1000.7 3.3 92
2019-08-09 09:00:00 22.4 7 Noroeste 33 Noroeste 0 1000.3 3.5 91
2019-08-09 08:00:00 27.3 15 Sudoeste 45 Sudoeste 0 998.7 1.3 53
2019-08-09 07:00:00 27.8 22 Sudoeste 57 Sudoeste 0 997.4 0.1 50
2019-08-09 06:00:00 28.2 18 Sudoeste 46 Oeste 0 996.8 -0.4 47
2019-08-09 05:00:00 28.6 12 Sudoeste 47 Sudoeste 0 997.4 0 45
2019-08-09 04:00:00 29.3 17 Sudoeste 49 Sur 0 997.3 -0.3 45
2019-08-09 03:00:00 29.5 6 Oeste 46 Oeste 0 997.2 0 47
2019-08-09 02:00:00 30.5 14 Oeste 42 Oeste 0 997.4 0.3 45
2019-08-09 01:00:00 29.7 8 Sudoeste 22 Sudoeste 0 997.6 0.6 47
2019-08-09 00:00:00 26.3 7 Sur 14 Sur 0 997.2 0.9 70
2019-08-08 23:00:00 26.6 7 Sur 12 Sudeste 0 997.1 0.2 68
2019-08-08 22:00:00 27.6 3 Sudoeste 12 Oeste 0 997 -0.6 61
2019-08-08 21:00:00 29.8 0 Calma 10 Sudeste 0 996.3 -1.9 56
2019-08-08 20:00:00 31.9 3 Sudeste 12 Este 0 996.9 -2 48
2019-08-08 19:00:00 30.8 4 Norte 17 Nordeste 0 997.6 -1.8 52
2019-08-08 18:00:00 30.6 10 Nordeste 20 Nordeste 0 998.2 -1.4 48
2019-08-08 17:00:00 30.6 9 Nordeste 19 Nordeste 0 998.9 -1 48
2019-08-08 16:00:00 30.5 12 Nordeste 18 Nordeste 0 999.4 -0.6 48
2019-08-08 15:00:00 32.3 8 Sudoeste 36 Oeste 0 999.6 -0.8 42
2019-08-08 14:00:00 31.7 6 Sudoeste 26 Sudoeste 0 999.9 -0.5 43
2019-08-08 13:00:00 30.7 9 Sudoeste 24 Sur 0 1000 -0.3 46
2019-08-08 12:00:00 29.7 9 Sudoeste 22 Sudoeste 0 1000.4 0.2 51
2019-08-08 11:00:00 28.2 9 Sudoeste 24 Sudeste 0 1000.4 0.2 56
2019-08-08 10:00:00 26.9 10 Sudoeste 24 Sudoeste 0 1000.3 0.1 61
2019-08-08 09:00:00 25.5 4 Sur 16 Sudoeste 0 1000.2 0.1 68
2019-08-08 08:00:00 22.2 6 Sudoeste 15 Sur 0 1000.2 -0.3 82
2019-08-08 07:00:00 19.9 3 Oeste 10 Sur 0 1000.2 -0.6 92
2019-08-08 06:00:00 19.1 5 Sur 10 Sur 0 1000.1 -1.5 95
2019-08-08 05:00:00 19.8 3 Sudeste 9 Sudeste 0 1000.5 -1.2 96
2019-08-08 04:00:00 20 5 Sudeste 8 Sudeste 0 1000.8 -0.9 96
2019-08-08 03:00:00 20.5 5 Oeste 12 Oeste 0 1001.6 -0.1 95
2019-08-08 02:00:00 21 6 Oeste 12 Noroeste 0 1001.7 0.1 96
2019-08-08 01:00:00 21.3 4 Oeste 9 Oeste 0 1001.7 0.4 95
2019-08-08 00:00:00 21.4 5 Oeste 12 Oeste 0 1001.7 0.4 94
2019-08-07 23:00:00 21.5 0 Calma 10 Este 0 1001.6 0.8 93
2019-08-07 22:00:00 21.8 0 Calma 10 Sudeste 0 1001.3 0.5 93
2019-08-07 21:00:00 22.9 0 Calma 18 Sudoeste 0.7 1001.3 0.4 90
2019-08-07 20:00:00 25.1 5 Nordeste 12 Nordeste 0 1000.8 -0.5 76
2019-08-07 19:00:00 26.1 8 Nordeste 14 Nordeste 0 1000.8 -1 70
2019-08-07 18:00:00 26.6 9 Nordeste 16 Nordeste 0 1000.9 -1.5 68
2019-08-07 17:00:00 26.7 11 Nordeste 22 Nordeste 0 1001.3 -2 73
2019-08-07 16:00:00 25.9 13 Nordeste 23 Nordeste 0 1001.8 -2 77
2019-08-07 15:00:00 24.6 14 Nordeste 24 Nordeste 0 1002.4 -1.4 83
2019-08-07 14:00:00 23.8 16 Nordeste 25 Nordeste 0 1003.3 -0.8 86
2019-08-07 13:00:00 23.9 8 Nordeste 14 Nordeste 0 1003.8 0.1 86
2019-08-07 12:00:00 23.1 8 Nordeste 14 Norte 0 1003.8 0.6 86
2019-08-07 11:00:00 22.5 5 Norte 9 Norte 0 1004.1 1.2 85
2019-08-07 10:00:00 22.6 2 Este 9 Sudeste 0 1003.7 1.1 85
2019-08-07 09:00:00 20.6 5 Sur 9 Sudeste 0 1003.2 1.1 94
2019-08-07 08:00:00 18.9 5 Sur 9 Sudeste 0 1002.9 1.3 95
2019-08-07 07:00:00 18.8 4 Sur 7 Sur 0 1002.6 1.1 95
2019-08-07 06:00:00 19 3 Este 6 Este 0 1002.1 0.3 95
2019-08-07 05:00:00 19.3 0 Calma 14 Sur 0 1001.6 -1.7 95
2019-08-07 04:00:00 19.2 6 Sudeste 13 Sudeste 0 1001.5 -2.9 95
2019-08-07 03:00:00 19.3 6 Sur 10 Sudeste 0 1001.8 -2.7 94
2019-08-07 02:00:00 19.6 0 Calma 12 Sudeste 0 1003.3 -1.2 93
2019-08-07 01:00:00 19.8 4 Sudeste 7 Sur 0 1004.4 -0.4 93
2019-08-07 00:00:00 20.4 0 Calma 10 Oeste 0 1004.5 -0.2 93
2019-08-06 23:00:00 20.5 0 Calma 17 Noroeste 0 1004.5 0.5 93
2019-08-06 22:00:00 20.7 12 Noroeste 19 Noroeste 0 1004.8 1.2 93
2019-08-06 21:00:00 21 6 Noroeste 12 Noroeste 0 1004.7 1.4 93
2019-08-06 20:00:00 21.3 8 Noroeste 21 Noroeste 0 1004 0.6 91
2019-08-06 19:00:00 22 5 Noroeste 13 Norte 0 1003.6 0.3 89
2019-08-06 18:00:00 22.5 6 Norte 15 Nordeste 0 1003.3 0 89
2019-08-06 17:00:00 23.3 8 Norte 19 Nordeste 0 1003.4 0 85
2019-08-06 16:00:00 23.4 12 Nordeste 20 Nordeste 0 1003.3 -0.4 83
2019-08-06 15:00:00 23.5 14 Nordeste 20 Nordeste 0 1003.3 -1.1 84
2019-08-06 14:00:00 22.8 7 Nordeste 18 Nordeste 0 1003.4 -1.2 86
2019-08-06 13:00:00 23.1 10 Nordeste 21 Nordeste 0 1003.7 -0.5 88
2019-08-06 12:00:00 22.2 7 Norte 12 Nordeste 0 1004.4 0 89
2019-08-06 11:00:00 21.5 5 Norte 11 Norte 0 1004.6 0.3 89
2019-08-06 10:00:00 20.3 6 Sudeste 15 Sudeste 0 1004.2 -0.2 92
2019-08-06 09:00:00 18.8 8 Sudeste 15 Sudeste 0 1004.4 -0.5 96
2019-08-06 08:00:00 17.1 8 Sudeste 13 Sur 0 1004.3 -0.7 96
2019-08-06 07:00:00 16.5 9 Sur 13 Sur 0 1004.4 -0.8 96
2019-08-06 06:00:00 16.8 6 Sur 10 Sur 0 1004.9 -1 96
2019-08-06 05:00:00 17.2 6 Sur 9 Sudeste 0 1005 -1.3 96
2019-08-06 04:00:00 17.4 5 Sur 9 Sur 0 1005.2 -1.2 96
2019-08-06 03:00:00 17.7 5 Sur 9 Sur 0 1005.9 -0.9 96
2019-08-06 02:00:00 18.1 5 Sudeste 5 Sur 0 1006.3 -0.6 95
2019-08-06 01:00:00 18.6 3 Sur 4 Sur 0 1006.4 0 93
2019-08-06 00:00:00 19.2 0 Calma 5 Este 0 1006.8 0.9 93
2019-08-05 23:00:00 19.7 3 Este 12 Nordeste 0 1006.9 1.1 93
2019-08-05 22:00:00 20.3 8 Nordeste 15 Nordeste 0 1006.4 0.5 92
2019-08-05 21:00:00 20.9 10 Nordeste 18 Nordeste 0 1005.9 -0.1 90
2019-08-05 20:00:00 21.6 11 Nordeste 20 Norte 0 1005.8 -0.3 88
2019-08-05 19:00:00 22.4 10 Nordeste 22 Nordeste 0 1005.9 -0.7 86
2019-08-05 18:00:00 23 14 Nordeste 23 Nordeste 0 1006 -0.5 84
2019-08-05 17:00:00 23.1 15 Nordeste 26 Nordeste 0 1006.1 -0.6 84
2019-08-05 16:00:00 23.1 15 Nordeste 25 Nordeste 0 1006.6 -0.3 84
2019-08-05 15:00:00 23.4 15 Nordeste 24 Nordeste 0 1006.5 -0.8 84
2019-08-05 14:00:00 23.3 12 Nordeste 22 Nordeste 0 1006.7 -0.9 84
2019-08-05 13:00:00 22.4 12 Nordeste 17 Nordeste 0 1006.9 -0.7 85
2019-08-05 12:00:00 22.3 8 Nordeste 12 Nordeste 0 1007.3 -0.4 86
2019-08-05 11:00:00 22.2 0 Calma 11 Sudeste 0 1007.6 0.1 85
2019-08-05 10:00:00 20.4 7 Sudeste 14 Sur 0 1007.6 0.3 93
2019-08-05 09:00:00 18.6 7 Sur 12 Sudeste 0 1007.7 0.4 96
2019-08-05 08:00:00 16.9 7 Sur 12 Sur 0 1007.5 0 96
2019-08-05 07:00:00 16.5 7 Sur 10 Sur 0 1007.3 -0.3 96
2019-08-05 06:00:00 17 6 Sur 10 Sur 0 1007.3 -0.6 97
2019-08-05 05:00:00 17.3 6 Sur 9 Sur 0 1007.5 -0.5 96
2019-08-05 04:00:00 17.5 6 Sur 10 Sur 0 1007.6 -0.8 96
2019-08-05 03:00:00 17.4 6 Sur 9 Sur 0 1007.9 -0.7 96
2019-08-05 02:00:00 18 5 Sur 7 Sur 0 1008 -0.8 95
2019-08-05 01:00:00 18.5 0 Calma -- -- 0 1008.4 0 94
2019-08-05 00:00:00 19.2 0 Calma 6 Noroeste 0 1008.6 0.8 93
2019-08-04 23:00:00 19.9 4 Noroeste 9 Oeste 0 1008.8 1.5 93
2019-08-04 22:00:00 20.2 4 Noroeste 11 Noroeste 0 1008.4 1.4 92
2019-08-04 21:00:00 20.6 6 Noroeste 10 Noroeste 0 1007.8 1 92
2019-08-04 20:00:00 20.8 6 Noroeste 11 Noroeste 0 1007.3 0.3 91
2019-08-04 19:00:00 21 5 Noroeste 11 Noroeste 0 1007 -0.1 89
2019-08-04 18:00:00 21.1 7 Noroeste 13 Noroeste 0 1006.8 -0.1 89
2019-08-04 17:00:00 21.7 6 Noroeste 13 Noroeste 0 1007 0.2 90
2019-08-04 16:00:00 21.8 7 Norte 13 Norte 0 1007.1 0.3 89
2019-08-04 15:00:00 21.3 7 Norte 10 Norte 0 1006.9 -0.2 92
2019-08-04 14:00:00 21.3 5 Norte 10 Norte 0 1006.8 -0.3 92
2019-08-04 13:00:00 21.3 7 Norte 12 Norte 0 1006.8 -0.5 92
2019-08-04 12:00:00 21.4 5 Norte 12 Oeste 0 1007.1 0.1 91
2019-08-04 11:00:00 21.1 4 Noroeste 8 Oeste 0 1007.1 0.4 91
2019-08-04 10:00:00 20.2 0 Calma 5 Sudeste 0 1007.3 1 93
2019-08-04 09:00:00 19.4 3 Sudeste 5 Sudeste 0 1007 0.8 93
2019-08-04 08:00:00 19.5 0 Calma 8 Oeste 0 1006.7 0.4 92
2019-08-04 07:00:00 19.8 3 Noroeste 9 Noroeste 0 1006.3 -0.2 92
2019-08-04 06:00:00 19.9 5 Noroeste 9 Noroeste 0 1006.2 -0.3 92
2019-08-04 05:00:00 19.9 5 Noroeste 10 Noroeste 0 1006.3 -0.3 91
2019-08-04 04:00:00 20.2 6 Noroeste 13 Noroeste 0 1006.5 -0.2 92
2019-08-04 03:00:00 20.1 7 Noroeste 15 Oeste 0 1006.5 -0.3 94
2019-08-04 02:00:00 20.3 7 Noroeste 17 Noroeste 0 1006.6 -0.1 94
2019-08-04 01:00:00 20.4 7 Noroeste 14 Noroeste 0 1006.7 0.3 93
2019-08-04 00:00:00 20.5 7 Noroeste 14 Noroeste 0 1006.8 1 93
2019-08-03 23:00:00 20.5 8 Noroeste 18 Noroeste 0 1006.7 1.3 93
2019-08-03 22:00:00 20.7 11 Noroeste 19 Oeste 0 1006.4 1.3 93
2019-08-03 21:00:00 20.8 10 Noroeste 17 Noroeste 0 1005.8 0.8 92
2019-08-03 20:00:00 22.3 7 Noroeste 17 Noroeste 0 1005.4 0.2 90
2019-08-03 19:00:00 21.9 8 Noroeste 14 Noroeste 0 1005.1 0.1 89
2019-08-03 18:00:00 23.3 6 Norte 17 Norte 0 1005 0 85
2019-08-03 17:00:00 23 10 Norte 23 Nordeste 0 1005.2 0.1 86
2019-08-03 16:00:00 23.1 12 Norte 25 Norte 0 1005 -0.3 87
2019-08-03 15:00:00 23.1 13 Nordeste 25 Nordeste 0 1005 -0.5 86
2019-08-03 14:00:00 23.4 13 Nordeste 23 Nordeste 0 1005.1 -1 85
2019-08-03 13:00:00 22.8 11 Nordeste 17 Nordeste 0 1005.3 -1.2 85
2019-08-03 12:00:00 22.6 7 Norte 13 Nordeste 0 1005.5 -1 85
2019-08-03 11:00:00 20.7 5 Norte 13 Este 0 1006.1 -0.3 87
2019-08-03 10:00:00 20.2 6 Sudeste 13 Sudeste 0 1006.5 0.1 89
2019-08-03 09:00:00 18.1 7 Sudeste 14 Sur 0 1006.5 -0.1 95
2019-08-03 08:00:00 16.5 7 Sur 13 Sur 0 1006.4 -0.5 96
2019-08-03 07:00:00 15.7 7 Sur 11 Sur 0 1006.4 -0.9 96
2019-08-03 06:00:00 15.9 8 Sur 11 Sur 0 1006.6 -1.1 95
2019-08-03 05:00:00 16.6 7 Sur 10 Sudeste 0 1006.9 -0.7 96
2019-08-03 04:00:00 17 5 Sur 9 Sur 0 1007.3 -1.1 94
2019-08-03 03:00:00 17.3 6 Sur 10 Sur 0 1007.7 -0.8 94
2019-08-03 02:00:00 17.4 5 Sur 6 Sur 0 1007.6 -0.9 93
2019-08-03 01:00:00 17.6 3 Sudeste 7 Sur 0 1008.4 0.1 92
2019-08-03 00:00:00 18 4 Sur 10 Sudeste 0 1008.5 0.7 92
2019-08-02 23:00:00 18.4 4 Sudeste 6 Sudeste 0 1008.5 0.7 90
2019-08-02 22:00:00 19.1 4 Este 17 Este 0 1008.3 0.7 88
2019-08-02 21:00:00 20.6 9 Este 22 Este 0 1007.8 -0.3 85
2019-08-02 20:00:00 21.6 11 Nordeste 22 Nordeste 0 1007.8 -0.6 81
2019-08-02 19:00:00 22 13 Nordeste 22 Nordeste 0 1007.6 -1.2 80
2019-08-02 18:00:00 23.1 13 Nordeste 26 Nordeste 0 1008.1 -0.7 75
2019-08-02 17:00:00 22.7 16 Nordeste 28 Nordeste 0 1008.4 -0.8 79
2019-08-02 16:00:00 22.3 18 Nordeste 27 Nordeste 0 1008.8 -0.6 85
2019-08-02 15:00:00 22.5 14 Nordeste 26 Nordeste 0 1008.8 -0.8 84
2019-08-02 14:00:00 21.1 14 Nordeste 24 Nordeste 0 1009.2 -0.4 86
2019-08-02 13:00:00 21.3 13 Nordeste 19 Nordeste 0 1009.4 0.3 87
2019-08-02 12:00:00 20.3 6 Norte 9 Norte 0 1009.6 0.6 89
2019-08-02 11:00:00 20.2 4 Norte 7 Norte 0 1009.6 0.9 91
2019-08-02 10:00:00 19.6 2 Sudeste 6 Sur 0 1009.1 0.6 93
2019-08-02 09:00:00 18.6 3 Sudeste 6 Sudeste 0 1009 0.8 96
2019-08-02 08:00:00 18 4 Sur 7 Sur 0 1008.7 0 96
2019-08-02 07:00:00 17.7 4 Sur 6 Sudeste 0 1008.5 -0.2 96
2019-08-02 06:00:00 17.8 3 Sur 6 Sudeste 0 1008.2 -0.8 96
2019-08-02 05:00:00 17.9 4 Sudeste 7 Sur 0 1008.7 -0.4 96
2019-08-02 04:00:00 18 3 Sur 5 Sur 0 1008.7 -0.6 96
2019-08-02 03:00:00 18.1 3 Sur 6 Sur 0 1009 -0.5 96
2019-08-02 02:00:00 17.9 4 Sur 6 Sur 0 1009.1 -0.1 96
2019-08-02 01:00:00 18 3 Sudeste 5 Sur 0 1009.3 0.6 96
2019-08-02 00:00:00 18.5 0 Calma 7 Oeste 0 1009.5 1.2 96
2019-08-01 23:00:00 18.4 3 Sudoeste 9 Sudoeste 0 1009.2 1.2 96
2019-08-01 22:00:00 18.1 4 Sudoeste 8 Noroeste 0 1008.7 1 96
2019-08-01 21:00:00 17.9 5 Noroeste 12 Noroeste 0 1008.3 0.9 96
2019-08-01 20:00:00 18.6 6 Noroeste 13 Noroeste 0 1008 1.2 94
2019-08-01 19:00:00 19.2 5 Norte 14 Norte 0 1007.7 1.1 92
2019-08-01 18:00:00 19.3 6 Norte 23 Nordeste 0 1007.4 1.1 92
2019-08-01 17:00:00 19.4 6 Noroeste 19 Noroeste 0 1006.8 0.6 93
2019-08-01 16:00:00 19.6 11 Noroeste 19 Noroeste 0 1006.6 0.5 90
2019-08-01 15:00:00 19.6 10 Noroeste 22 Noroeste 0 1006.3 0.3 90
2019-08-01 14:00:00 19.8 11 Noroeste 21 Oeste 0 1006.2 0.2 90
2019-08-01 13:00:00 20 10 Noroeste 18 Noroeste 0 1006.1 0.3 89
2019-08-01 12:00:00 19.9 8 Noroeste 14 Noroeste 0 1006 0.4 88
2019-08-01 11:00:00 19.8 4 Sudoeste 10 Oeste 0 1006 0.2 90
2019-08-01 10:00:00 18.7 0 Calma 5 Este 0 1005.8 0.1 92
2019-08-01 09:00:00 18 0 Calma 9 Sudeste 0 1005.6 0.1 95
2019-08-01 08:00:00 17.2 5 Sudeste 10 Sudeste 0 1005.8 -0.5 95
2019-08-01 07:00:00 17.8 0 Calma 5 Sudoeste 0 1005.7 -1.1 95
2019-08-01 06:00:00 18.2 0 Calma 14 Este 0.1 1005.5 -1.7 94
2019-08-01 05:00:00 18.7 5 Sudeste 17 Este 0.1 1006.3 -1.4 93
2019-08-01 04:00:00 19.1 6 Nordeste 12 Nordeste 0 1006.8 -1.5 90
2019-08-01 03:00:00 19.1 8 Este 14 Nordeste 0 1007.2 -1.4 88
2019-08-01 02:00:00 19 7 Este 12 Este 0 1007.7 -1.1 88
2019-08-01 01:00:00 19 7 Este 11 Este 0 1008.3 -0.3 88
2019-08-01 00:00:00 18.9 5 Este 13 Este 0 1008.6 0.4 86
2019-07-31 23:00:00 19 9 Este 15 Este 0 1008.8 0.7 85
2019-07-31 22:00:00 18.8 9 Este 16 Este 0 1008.6 0.4 85
2019-07-31 21:00:00 19.1 9 Este 18 Este 0 1008.2 0 82
2019-07-31 20:00:00 20.4 12 Este 21 Nordeste 0 1008.1 -0.7 76
2019-07-31 19:00:00 20.9 13 Nordeste 24 Nordeste 0 1008.2 -0.9 72
2019-07-31 18:00:00 21.2 14 Nordeste 26 Nordeste 0 1008.2 -1.2 68
2019-07-31 17:00:00 21.1 14 Nordeste 28 Nordeste 0 1008.8 -1.1 70
2019-07-31 16:00:00 20.6 15 Nordeste 28 Nordeste 0 1009.1 -1.3 74
2019-07-31 15:00:00 20.3 19 Nordeste 31 Nordeste 0 1009.4 -1.4 74
2019-07-31 14:00:00 20.7 16 Nordeste 30 Nordeste 0 1009.9 -1.1 72
2019-07-31 13:00:00 20.8 16 Nordeste 28 Nordeste 0 1010.4 -1 76
2019-07-31 12:00:00 20.3 13 Nordeste 22 Nordeste 0 1010.8 -0.8 76
2019-07-31 11:00:00 19.1 4 Nordeste 10 Sudeste 0 1011 -0.3 76
2019-07-31 10:00:00 18 6 Sudeste 14 Sudeste 0 1011.4 0.1 82
2019-07-31 09:00:00 15.7 9 Sur 16 Sur 0 1011.6 0.2 92
2019-07-31 08:00:00 13.8 9 Sur 14 Sur 0 1011.3 -0.2 95
2019-07-31 07:00:00 13.2 8 Sur 13 Sur 0 1011.3 -0.5 95
2019-07-31 06:00:00 13.6 8 Sur 11 Sur 0 1011.4 -0.8 94
2019-07-31 05:00:00 14.1 6 Sur 12 Sur 0 1011.5 -0.9 94
2019-07-31 04:00:00 14.2 8 Sur 12 Sur 0 1011.8 -0.6 94
2019-07-31 03:00:00 14.4 8 Sur 10 Sur 0 1012.2 -0.6 93
2019-07-31 02:00:00 14.9 6 Sur 9 Sudeste 0 1012.4 -0.5 93
2019-07-31 01:00:00 15.6 5 Sudeste 7 Sudeste 0 1012.4 0.4 90
2019-07-31 00:00:00 16.6 3 Sudeste 8 Noroeste 0 1012.8 0.7 86
2019-07-30 23:00:00 17.7 4 Noroeste 13 Noroeste 0 1012.9 1 79
2019-07-30 22:00:00 18.1 0 Calma 16 Nordeste 0 1012 0.4 80
2019-07-30 21:00:00 18.7 7 Noroeste 26 Noroeste 0 1012.1 0.1 79
2019-07-30 20:00:00 19.3 11 Noroeste 24 Noroeste 0 1011.9 -0.1 75
2019-07-30 19:00:00 18.9 12 Noroeste 26 Noroeste 0 1011.6 -0.2 71
2019-07-30 18:00:00 19.7 13 Noroeste 29 Noroeste 0 1012 0.1 73
2019-07-30 17:00:00 20.6 13 Noroeste 29 Noroeste 0 1012 0.3 72
2019-07-30 16:00:00 19.7 16 Noroeste 30 Noroeste 0 1011.8 -0.1 75
2019-07-30 15:00:00 20.1 16 Noroeste 32 Noroeste 0 1011.9 0.6 63
2019-07-30 14:00:00 19.8 16 Noroeste 37 Noroeste 0 1011.7 0.5 74
2019-07-30 13:00:00 19.8 19 Noroeste 37 Noroeste 0 1011.9 1.2 73
2019-07-30 12:00:00 18.6 17 Noroeste 32 Noroeste 0 1011.3 0.6 79
2019-07-30 11:00:00 18.7 19 Noroeste 31 Noroeste 0 1011.2 1.3 70
2019-07-30 10:00:00 18.4 11 Noroeste 25 Oeste 0 1010.7 1.2 78
2019-07-30 09:00:00 17.6 12 Oeste 25 Oeste 0 1010.7 1.7 76
2019-07-30 08:00:00 17.3 9 Oeste 26 Oeste 0 1009.9 1.1 77
2019-07-30 07:00:00 17.4 12 Oeste 27 Oeste 0 1009.5 1 81
2019-07-30 06:00:00 17.4 10 Oeste 28 Oeste 0 1009 0.5 87
2019-07-30 05:00:00 17.4 12 Oeste 28 Oeste 0 1008.8 0.6 88
2019-07-30 04:00:00 17.6 10 Oeste 19 Oeste 0 1008.5 0.2 85
2019-07-30 03:00:00 17.7 9 Oeste 17 Oeste 0 1008.5 0.6 87
2019-07-30 02:00:00 17.6 7 Oeste 18 Oeste 0.4 1008.2 0.6 90
2019-07-30 01:00:00 17.2 8 Noroeste 26 Noroeste 0.2 1008.3 1.5 92
2019-07-30 00:00:00 17.1 2 Sudoeste 18 Sudoeste 1 1007.9 2 95
2019-07-29 23:00:00 17.4 4 Oeste 28 Noroeste 2.8 1007.6 2.2 93
2019-07-29 22:00:00 17.3 6 Oeste 34 Noroeste 0.7 1006.8 2.1 95
2019-07-29 21:00:00 18.4 4 Oeste 11 Oeste 0.1 1005.9 1.3 92
2019-07-29 20:00:00 18.4 7 Oeste 27 Noroeste 0.4 1005.4 1.3 92
2019-07-29 19:00:00 20.6 9 Noroeste 17 Noroeste 0 1004.7 0.8 76
2019-07-29 18:00:00 20.7 9 Noroeste 19 Noroeste 0 1004.6 1.2 74
2019-07-29 17:00:00 20.8 7 Noroeste 22 Noroeste 0 1004.1 1.1 73
2019-07-29 16:00:00 20.4 11 Noroeste 23 Noroeste 0 1003.9 1.4 79
2019-07-29 15:00:00 21.1 12 Noroeste 24 Norte 0 1003.4 1.4 79
2019-07-29 14:00:00 21.6 12 Noroeste 27 Noroeste 0 1003 1.4 80
2019-07-29 13:00:00 22.3 15 Noroeste 27 Noroeste 0 1002.5 1.7 84
2019-07-29 12:00:00 21.9 14 Noroeste 28 Noroeste 0 1002 1.7 82
2019-07-29 11:00:00 21.8 17 Noroeste 26 Noroeste 0 1001.6 1.3 79
2019-07-29 10:00:00 20.8 6 Noroeste 12 Noroeste 0 1000.8 1.3 79
2019-07-29 09:00:00 19.3 8 Sur 12 Sur 0 1000.3 1.4 86
2019-07-29 08:00:00 17.6 3 Sur 14 Sudoeste 0 1000.3 1.3 90
2019-07-29 07:00:00 16 9 Sur 16 Sur 0 999.5 0.3 92
2019-07-29 06:00:00 15.6 10 Sur 16 Sur 0 998.9 -0.6 93
2019-07-29 05:00:00 15.7 9 Sur 15 Sur 0 999 -0.8 93
2019-07-29 04:00:00 16.2 8 Sudeste 13 Sudeste 0 999.2 -1 93
2019-07-29 03:00:00 16.2 9 Sur 15 Sudeste 0 999.5 -1.2 93
2019-07-29 02:00:00 16.8 8 Sur 14 Sur 0 999.8 -1.3 92
2019-07-29 01:00:00 17.2 6 Sur 10 Sur 0 1000.2 -1 91
2019-07-29 00:00:00 17.9 4 Sudeste 15 Sudeste 0 1000.7 -0.7 89
2019-07-28 23:00:00 18.2 6 Sudeste 12 Sudeste 0 1001.1 -0.3 86
2019-07-28 22:00:00 19.1 5 Sudeste 12 Sudeste 0 1001.2 -0.4 83
2019-07-28 21:00:00 20.6 6 Sudeste 18 Este 0 1001.4 -0.8 74
2019-07-28 20:00:00 21.9 9 Nordeste 20 Nordeste 0 1001.4 -1.4 74
2019-07-28 19:00:00 21.7 12 Nordeste 25 Nordeste 0 1001.6 -1.6 74
2019-07-28 18:00:00 22.1 16 Nordeste 26 Nordeste 0 1002.2 -1.8 71
2019-07-28 17:00:00 21.6 16 Nordeste 26 Nordeste 0 1002.8 -1.6 72
2019-07-28 16:00:00 21.6 14 Nordeste 24 Nordeste 0 1003.2 -1.4 74
2019-07-28 15:00:00 21.9 9 Nordeste 16 Nordeste 0 1004 -1.1 76
2019-07-28 14:00:00 20.4 6 Nordeste 11 Nordeste 0 1004.4 -0.6 76
2019-07-28 13:00:00 19.7 4 Norte 13 Nordeste 0 1004.6 -0.2 83
2019-07-28 12:00:00 19.6 7 Nordeste 17 Nordeste 0 1005.1 0.7 82
2019-07-28 11:00:00 18.2 10 Nordeste 20 Nordeste 0 1005 0.6 87
2019-07-28 10:00:00 18.8 6 Este 16 Sudeste 0 1004.8 0.4 90
2019-07-28 09:00:00 16.8 7 Sur 12 Sudeste 0 1004.4 0.5 96
2019-07-28 08:00:00 15 8 Sur 12 Sudeste 0 1004.4 0 96
2019-07-28 07:00:00 15.1 5 Sur 11 Oeste 0 1004.4 0.2 95
2019-07-28 06:00:00 15.7 6 Sudoeste 24 Oeste 0.3 1003.9 -0.5 95
2019-07-28 05:00:00 16.3 10 Oeste 24 Oeste 0.2 1004.4 -0.1 94
2019-07-28 04:00:00 17.2 10 Oeste 39 Oeste 0 1004.2 -0.4 90
2019-07-28 03:00:00 17.2 9 Oeste 21 Oeste 0 1004.4 -0.1 90
2019-07-28 02:00:00 16.8 9 Oeste 18 Oeste 0 1004.5 0.1 94
2019-07-28 01:00:00 16.4 9 Noroeste 24 Noroeste 1.3 1004.6 0.5 94
2019-07-28 00:00:00 17.2 10 Oeste 21 Oeste 0 1004.5 1 89
2019-07-27 23:00:00 16.7 7 Oeste 20 Oeste 0 1004.4 1.8 92
2019-07-26 12:00:00 17.3 13 Noroeste 43 Noroeste 1.7 1006.1 0.9 97
2019-07-26 11:00:00 17.5 11 Noroeste 26 Noroeste 0.1 1006 0.5 97
2019-07-26 10:00:00 17.4 15 Noroeste 35 Noroeste 1.3 1005.9 0.8 97
2019-07-26 09:00:00 18 14 Noroeste 24 Noroeste 0 1005.2 0.5 97
2019-07-26 08:00:00 18.2 9 Noroeste 29 Noroeste 1.4 1005.5 0.3 96
2019-07-26 07:00:00 18.4 10 Noroeste 24 Noroeste 2.6 1005.1 0.1 96
2019-07-26 06:00:00 19.5 9 Nordeste 16 Norte 1.2 1004.7 -1 95
2019-07-26 05:00:00 19.7 7 Norte 22 Nordeste 3 1005.2 -0.5 95
2019-07-26 04:00:00 20 12 Nordeste 21 Norte 0.5 1005 -0.8 96
2019-07-26 03:00:00 20.4 5 Nordeste 13 Nordeste 0 1005.7 0 96
2019-07-26 02:00:00 20.4 6 Noroeste 14 Noroeste 0.2 1005.7 0.6 96
2019-07-26 01:00:00 21.2 7 Noroeste 12 Noroeste 0 1005.8 0.6 96
2019-07-26 00:00:00 21.1 7 Noroeste 17 Noroeste 0 1005.7 1.3 96
2019-07-25 23:00:00 21.1 10 Noroeste 19 Norte 0.6 1005.1 -0.1 96
2019-07-25 22:00:00 21.1 8 Norte 21 Norte 10.6 1005.2 1.6 95
2019-07-25 21:00:00 21.7 8 Noroeste 26 Norte 0 1004.4 1.4 95
2019-07-25 20:00:00 22.2 0 Calma 11 Norte 0 1005.2 2.3 95
2019-07-25 19:00:00 22.2 5 Norte 15 Nordeste 0.2 1003.6 1.1 95
2019-07-25 18:00:00 22.3 3 Noroeste 18 Norte 0.5 1003 0.7 94
2019-07-25 17:00:00 22.8 5 Noroeste 14 Noroeste 0 1002.9 0.4 92
2019-07-25 16:00:00 23.4 6 Norte 15 Norte 0 1002.5 0.3 92
2019-07-25 15:00:00 24.3 8 Norte 14 Norte 0 1002.3 0 89
2019-07-25 14:00:00 24.2 7 Norte 14 Noroeste 0 1002.5 0.5 88
2019-07-25 13:00:00 23.9 6 Norte 12 Norte 0 1002.2 0.5 90
2019-07-25 12:00:00 23.9 8 Norte 12 Norte 0 1002.3 1 91
2019-07-25 11:00:00 22.9 7 Norte 11 Noroeste 0 1002 1.2 92
2019-07-25 10:00:00 22.5 4 Noroeste 10 Noroeste 0 1001.7 0.9 93
2019-07-25 09:00:00 22.1 3 Nordeste 6 Norte 0 1001.3 0.3 95
2019-07-25 08:00:00 21.5 0 Calma 5 Sudeste 0 1000.8 -0.5 96
2019-07-25 07:00:00 21 0 Calma 8 Noroeste 0 1000.8 -0.6 96
2019-07-25 06:00:00 21.4 6 Noroeste 14 Oeste 0 1001 -0.7 96
2019-07-25 05:00:00 21.3 6 Oeste 18 Noroeste 0 1001.3 -0.4 96
2019-07-25 04:00:00 21.4 10 Noroeste 28 Noroeste 0 1001.4 0 96
2019-07-25 03:00:00 21.1 14 Noroeste 30 Oeste 0 1001.7 0.5 96
2019-07-25 02:00:00 21.3 17 Noroeste 35 Oeste 0 1001.7 1.1 96
2019-07-25 01:00:00 21.6 19 Noroeste 33 Noroeste 0 1001.4 2 96
2019-07-25 00:00:00 21.8 17 Noroeste 29 Noroeste 0 1001.2 1.6 96
2019-07-24 23:00:00 22.7 14 Oeste 29 Oeste 0 1000.6 0.4 95
2019-07-24 22:00:00 24 0 Calma 15 Norte 0 999.4 -1.5 90
2019-07-24 21:00:00 26.2 5 Sudeste 8 Sudeste 0 999.6 -1.2 87
2019-07-24 20:00:00 25.2 4 Oeste 16 Sudoeste 0 1000.2 -1.2 90
2019-07-24 19:00:00 24.4 10 Oeste 22 Oeste 0 1000.9 -1.1 92
2019-07-24 18:00:00 25.4 10 Oeste 19 Oeste 0 1000.8 -1.8 87
2019-07-24 17:00:00 24.3 8 Noroeste 17 Norte 0 1001.4 -2.1 90
2019-07-24 16:00:00 23.9 6 Noroeste 17 Norte 0 1002 -2.1 89
2019-07-24 15:00:00 25.7 10 Nordeste 20 Nordeste 0 1002.6 -2.5 83
2019-07-24 14:00:00 25.2 10 Nordeste 21 Nordeste 0 1003.5 -2.2 85
2019-07-24 13:00:00 25.8 10 Nordeste 16 Nordeste 0 1004.1 -1.8 83
2019-07-24 12:00:00 24.2 9 Nordeste 16 Norte 0 1005.1 -1 86
2019-07-24 11:00:00 23.7 4 Norte 12 Sudeste 0 1005.7 -0.2 87
2019-07-24 10:00:00 22.5 6 Este 11 Sudeste 0 1005.9 0.1 93
2019-07-24 09:00:00 21.4 5 Sudeste 9 Sudeste 0 1006.1 0 96
2019-07-24 08:00:00 20.7 3 Sudeste 8 Sudeste 0 1005.9 0.8 95
2019-07-24 07:00:00 20.9 2 Oeste 10 Noroeste 0 1005.8 0.9 95
2019-07-24 06:00:00 20.5 4 Noroeste 11 Noroeste 0 1006.1 0.5 96
2019-07-24 05:00:00 20.1 6 Sur 14 Sur 0 1005.1 -1.5 96
2019-07-24 04:00:00 20.1 6 Sur 12 Sudeste 0 1004.9 -3 96
2019-07-24 03:00:00 20.6 5 Sur 11 Sudeste 0 1005.6 -2.3 96
2019-07-24 02:00:00 20.6 3 Oeste 10 Noroeste 0 1006.6 -2.4 95
2019-07-24 01:00:00 21 4 Oeste 13 Este 0 1007.9 0.1 96
2019-07-24 00:00:00 21 6 Noroeste 24 Noroeste 0 1007.9 1.4 95
2019-07-23 23:00:00 21.2 11 Noroeste 22 Norte 0 1009 2.9 96
2019-07-23 22:00:00 21.4 15 Noroeste 37 Noroeste 0 1007.8 3.3 95
2019-07-23 21:00:00 20.9 26 Noroeste 45 Noroeste 0.5 1006.5 2.6 96
2019-07-23 20:00:00 21.9 5 Nordeste 22 Noroeste 0.2 1006.1 2.4 95
2019-07-23 19:00:00 22.8 16 Noroeste 29 Oeste 0 1004.5 0.3 95
2019-07-23 18:00:00 21.9 8 Norte 28 Noroeste 0 1003.9 -0.3 95
2019-07-23 17:00:00 24 8 Noroeste 16 Oeste 0 1003.7 0.7 91
2019-07-23 16:00:00 24.6 8 Noroeste 23 Noroeste 0 1004.2 0.7 91
2019-07-23 15:00:00 23.7 15 Noroeste 32 Oeste 0 1004.2 -0.1 91
2019-07-23 14:00:00 35.1 10 Sudeste 24 Sudeste 0 1003 -2.1 29
2019-07-23 13:00:00 34.7 12 Sudeste 27 Sur 0 1003.5 -1.3 31
2019-07-23 12:00:00 33.1 9 Sudeste 31 Sur 0 1004.3 0.8 33
2019-07-23 11:00:00 31.1 6 Sudoeste 30 Sudoeste 0 1005.1 1.7 36
2019-07-23 10:00:00 30.5 15 Sur 30 Sudoeste 0 1004.8 1.2 39
2019-07-23 09:00:00 27.7 12 Sudeste 25 Sudeste 0 1003.5 -0.5 49
2019-07-23 08:00:00 24.6 14 Sur 26 Sudeste 0 1003.4 -1.1 65
2019-07-23 07:00:00 22.5 10 Sur 24 Sudeste 0 1003.6 -2 82
2019-07-23 06:00:00 20.7 7 Sur 14 Sudeste 0 1004 -3.2 95
2019-07-23 05:00:00 21 10 Sudeste 21 Sudeste 0 1004.5 -2.9 96
2019-07-23 04:00:00 19.8 9 Sudeste 14 Sudeste 0 1005.6 -2.4 95
2019-07-23 03:00:00 20.4 4 Sur 9 Sudeste 0 1007.2 -1 95
2019-07-23 02:00:00 20.9 6 Sur 8 Sudeste 0 1007.4 -1.1 95
2019-07-23 01:00:00 21.6 3 Oeste 14 Noroeste 0 1008 0.4 94
2019-07-23 00:00:00 21.6 3 Oeste 33 Noroeste 0 1008.2 0.5 95
2019-07-22 23:00:00 21.4 6 Noroeste 13 Oeste 0 1008.5 0.8 96
2019-07-22 22:00:00 21.7 6 Noroeste 12 Noroeste 0 1007.6 0 95
2019-07-22 21:00:00 22.4 8 Noroeste 17 Noroeste 0 1007.7 -0.3 93
2019-07-22 20:00:00 22.7 10 Noroeste 18 Noroeste 0 1007.7 -0.5 93
2019-07-22 19:00:00 23.3 12 Noroeste 21 Noroeste 0 1007.6 -1 92
2019-07-22 18:00:00 24.2 10 Noroeste 19 Noroeste 0 1008 -1.3 89
2019-07-22 17:00:00 24.7 6 Noroeste 15 Norte 0 1008.2 -1.5 88
2019-07-22 16:00:00 24.6 8 Norte 18 Norte 0 1008.6 -1.7 87
2019-07-22 15:00:00 26 10 Nordeste 20 Nordeste 0 1009.3 -1.4 79
2019-07-22 14:00:00 25 12 Nordeste 26 Nordeste 0 1009.7 -1.8 82
2019-07-22 13:00:00 24.2 15 Nordeste 23 Nordeste 0 1010.3 -1.6 84
2019-07-22 12:00:00 23.6 12 Nordeste 19 Nordeste 0 1010.7 -1.5 86
2019-07-22 11:00:00 23 6 Nordeste 13 Sudeste 0 1011.5 -1 86
2019-07-22 10:00:00 23 4 Este 11 Sudeste 0 1011.9 -0.7 86
2019-07-22 09:00:00 21.9 2 Sudoeste 5 Sur 0 1012.2 -0.4 91
2019-07-22 08:00:00 20.8 0 Calma 0 Calma 0 1012.5 -0.2 94
2019-07-22 07:00:00 20.5 0 Calma 0 Calma 0 1012.6 -0.5 94
2019-07-22 06:00:00 20.3 0 Calma 0 Calma 0 1012.6 -0.8 92
2019-07-22 05:00:00 20.3 0 Calma 0 Calma 0 1012.7 -1.3 93
2019-07-22 04:00:00 20.5 0 Calma -- -- 0 1013.1 -1 92
2019-07-22 03:00:00 20.5 0 Calma 0 Calma 0 1013.4 -1 92
2019-07-22 02:00:00 20.4 0 Calma 0 Calma 0 1014 -0.4 92
2019-07-22 01:00:00 20.6 0 Calma 10 Este 0 1014.1 0 92
2019-07-22 00:00:00 20.5 5 Este 12 Este 0 1014.4 1.2 91
2019-07-21 23:00:00 20.7 8 Este 14 Nordeste 0 1014.4 1.4 92
2019-07-21 22:00:00 20.8 6 Nordeste 12 Este 0 1014.1 1.2 92
2019-07-21 21:00:00 21.1 4 Norte 12 Nordeste 0 1013.2 0.9 92
2019-07-21 20:00:00 21.3 8 Nordeste 22 Nordeste 0 1013 0.9 90
2019-07-21 19:00:00 21.8 15 Nordeste 22 Nordeste 0 1012.9 1.2 89
2019-07-21 18:00:00 22.7 10 Nordeste 20 Nordeste 0 1012.3 0 86
2019-07-21 17:00:00 22.5 12 Nordeste 22 Nordeste 0 1012.1 -0.6 85
2019-07-21 16:00:00 22.1 13 Nordeste 23 Este 0 1011.7 -1.5 85
2019-07-21 15:00:00 22 0 Calma 14 Nordeste 0 1012.3 -0.6 91
2019-07-21 14:00:00 20.8 3 Nordeste 15 Nordeste 0 1012.7 0.2 96
2019-07-21 13:00:00 19.9 11 Nordeste 18 Nordeste 0 1013.2 0.7 96
2019-07-21 12:00:00 20 8 Nordeste 16 Nordeste 0 1012.9 0.9 96
2019-07-21 11:00:00 20 6 Nordeste 9 Nordeste 0.5 1012.5 0.9 96
2019-07-21 10:00:00 19.9 3 Noroeste 8 Sudeste 0.3 1012.5 1.1 95
2019-07-21 09:00:00 19.9 3 Sudeste 9 Sudeste 0 1012 0.6 95
2019-07-21 08:00:00 19.5 5 Sur 8 Sur 0 1011.6 0.3 95
2019-07-21 07:00:00 19.7 3 Sudeste 5 Sudeste 0 1011.4 0 95
2019-07-21 06:00:00 19.7 2 Sudeste 4 Este 0 1011.4 -0.1 95
2019-07-21 05:00:00 19.8 0 Calma 5 Sudeste 0 1011.3 -0.9 95
2019-07-21 04:00:00 19.8 3 Sudeste 5 Sudeste 0 1011.4 -0.7 95
2019-07-21 03:00:00 20.2 2 Sudeste 9 Nordeste 0 1011.5 -0.2 94
2019-07-21 02:00:00 20.7 0 Calma 6 Nordeste 0 1012.2 0.7 94
2019-07-21 01:00:00 20.9 0 Calma 10 Norte 0 1012.1 1.3 94
2019-07-21 00:00:00 20.8 4 Nordeste 9 Nordeste 0 1011.7 1.3 93